createdAt,value
2018-03-18T00:02:09.490Z,79.50
2018-03-18T00:04:42.028Z,79.20
2018-03-18T00:07:16.234Z,79.60
2018-03-18T00:09:48.863Z,79.50
2018-03-18T00:12:21.372Z,78.60
2018-03-18T00:14:54.688Z,79.00
2018-03-18T00:17:28.085Z,78.70
2018-03-18T00:20:01.424Z,79.20
2018-03-18T00:22:34.264Z,79.50
2018-03-18T00:25:06.951Z,79.50
2018-03-18T00:27:40.288Z,78.70
2018-03-18T00:30:14.427Z,78.40
2018-03-18T00:32:47.041Z,78.50
2018-03-18T00:35:21.138Z,79.10
2018-03-18T00:37:53.822Z,79.10
2018-03-18T00:40:26.198Z,79.50
2018-03-18T00:42:59.529Z,78.50
2018-03-18T00:45:32.021Z,78.40
2018-03-18T00:48:05.248Z,79.50
2018-03-18T00:50:38.467Z,78.40
2018-03-18T00:53:10.941Z,78.60
2018-03-18T00:55:44.205Z,77.70
2018-03-18T00:58:17.397Z,78.70
2018-03-18T01:00:50.377Z,78.90
2018-03-18T01:03:23.573Z,78.70
2018-03-18T01:05:56.052Z,78.00
2018-03-18T01:08:29.270Z,76.70
2018-03-18T01:11:02.226Z,76.80
2018-03-18T01:13:34.684Z,77.60
2018-03-18T01:16:07.247Z,76.90
2018-03-18T01:18:40.440Z,78.00
2018-03-18T01:21:13.888Z,77.20
2018-03-18T01:23:47.288Z,77.40
2018-03-18T01:26:20.026Z,76.80
2018-03-18T01:28:52.462Z,77.30
2018-03-18T01:31:26.580Z,77.40
2018-03-18T01:33:59.721Z,77.40
2018-03-18T01:36:32.347Z,77.10
2018-03-18T01:39:04.835Z,77.70
2018-03-18T01:41:38.338Z,76.90
2018-03-18T01:44:11.636Z,77.00
2018-03-18T01:46:44.007Z,77.40
2018-03-18T01:49:16.449Z,77.30
2018-03-18T01:51:50.553Z,77.50
2018-03-18T01:54:23.206Z,77.30
2018-03-18T01:56:55.703Z,76.10
2018-03-18T01:59:29.144Z,77.20
2018-03-18T02:02:02.611Z,77.20
2018-03-18T02:04:36.057Z,76.90
2018-03-18T02:07:09.045Z,76.80
2018-03-18T02:09:42.169Z,76.50
2018-03-18T02:12:15.265Z,76.40
2018-03-18T02:14:47.955Z,76.20
2018-03-18T02:17:20.368Z,76.90
2018-03-18T02:19:52.909Z,77.20
2018-03-18T02:22:26.104Z,76.90
2018-03-18T02:24:58.808Z,76.90
2018-03-18T02:27:31.978Z,77.00
2018-03-18T02:30:05.431Z,78.00
2018-03-18T02:32:38.729Z,77.40
2018-03-18T02:35:11.527Z,77.30
2018-03-18T02:37:45.513Z,77.90
2018-03-18T02:40:19.023Z,78.40
2018-03-18T02:42:52.329Z,79.40
2018-03-18T02:45:26.379Z,79.50
2018-03-18T02:47:59.499Z,79.70
2018-03-18T02:50:31.949Z,79.70
2018-03-18T02:53:04.540Z,79.90
2018-03-18T02:55:37.934Z,80.00
2018-03-18T02:58:10.324Z,80.90
2018-03-18T03:00:43.890Z,80.90
2018-03-18T03:03:18.053Z,81.10
2018-03-18T03:05:51.441Z,81.10
2018-03-18T03:08:24.041Z,81.20
2018-03-18T03:10:56.461Z,80.90
2018-03-18T03:13:29.849Z,81.00
2018-03-18T03:16:03.937Z,81.30
2018-03-18T03:18:36.698Z,81.20
2018-03-18T03:21:10.677Z,81.40
2018-03-18T03:23:43.289Z,81.30
2018-03-18T03:26:15.746Z,81.60
2018-03-18T03:28:48.229Z,82.10
2018-03-18T03:31:21.663Z,80.70
2018-03-18T03:33:54.935Z,80.90
2018-03-18T03:36:27.430Z,81.20
2018-03-18T03:39:00.628Z,81.30
2018-03-18T03:41:33.208Z,81.40
2018-03-18T03:44:06.697Z,81.90
2018-03-18T03:46:39.928Z,82.70
2018-03-18T03:49:13.345Z,82.70
2018-03-18T03:51:45.931Z,82.70
2018-03-18T03:54:19.313Z,82.30
2018-03-18T03:56:52.606Z,81.70
2018-03-18T03:59:25.831Z,81.00
2018-03-18T04:01:59.005Z,80.80
2018-03-18T04:04:31.431Z,81.30
2018-03-18T04:07:04.180Z,81.60
2018-03-18T04:09:36.674Z,81.80
2018-03-18T04:12:10.722Z,81.10
2018-03-18T04:14:43.525Z,80.90
2018-03-18T04:17:15.971Z,81.00
2018-03-18T04:19:50.126Z,80.60
2018-03-18T04:22:23.905Z,81.20
2018-03-18T04:24:57.390Z,80.80
2018-03-18T04:27:30.028Z,80.80
2018-03-18T04:30:02.461Z,81.40
2018-03-18T04:32:35.825Z,81.60
2018-03-18T04:35:08.293Z,81.40
2018-03-18T04:37:40.894Z,81.30
2018-03-18T04:40:14.036Z,82.50
2018-03-18T04:42:47.512Z,81.50
2018-03-18T04:45:20.488Z,81.40
2018-03-18T04:47:52.932Z,81.10
2018-03-18T04:50:25.344Z,81.40
2018-03-18T04:52:58.800Z,81.60
2018-03-18T04:55:32.248Z,81.60
2018-03-18T04:58:05.576Z,81.70
2018-03-18T05:00:39.689Z,81.80
2018-03-18T05:03:12.374Z,81.00
2018-03-18T05:05:44.974Z,81.20
2018-03-18T05:08:18.349Z,80.50
2018-03-18T05:10:51.573Z,80.50
2018-03-18T05:13:24.503Z,80.40
2018-03-18T05:15:57.724Z,80.80
2018-03-18T05:18:30.257Z,80.60
2018-03-18T05:21:02.685Z,79.70
2018-03-18T05:23:36.143Z,79.70
2018-03-18T05:26:08.569Z,79.80
2018-03-18T05:28:42.032Z,79.70
2018-03-18T05:31:16.143Z,79.90
2018-03-18T05:33:48.935Z,79.90
2018-03-18T05:36:21.408Z,79.90
2018-03-18T05:38:53.939Z,79.30
2018-03-18T05:41:27.287Z,79.70
2018-03-18T05:43:59.879Z,79.20
2018-03-18T05:46:33.293Z,79.50
2018-03-18T05:49:06.729Z,79.20
2018-03-18T05:51:40.691Z,79.40
2018-03-18T05:54:14.259Z,79.30
2018-03-18T05:56:46.843Z,79.20
2018-03-18T05:59:19.359Z,79.70
2018-03-18T06:01:52.595Z,79.00
2018-03-18T06:04:25.372Z,79.00
2018-03-18T06:06:58.656Z,78.80
2018-03-18T06:09:31.132Z,79.50
2018-03-18T06:12:04.340Z,78.10
2018-03-18T06:14:37.629Z,78.20
2018-03-18T06:17:10.093Z,78.20
2018-03-18T06:19:42.856Z,78.30
2018-03-18T06:22:16.690Z,78.40
2018-03-18T06:24:49.612Z,78.40
2018-03-18T06:27:23.017Z,78.20
2018-03-18T06:29:55.629Z,77.60
2018-03-18T06:32:28.754Z,77.50
2018-03-18T06:35:01.491Z,77.60
2018-03-18T06:37:34.796Z,77.80
2018-03-18T06:40:07.317Z,77.90
2018-03-18T06:42:40.618Z,77.70
2018-03-18T06:45:13.013Z,76.80
2018-03-18T06:47:46.209Z,76.80
2018-03-18T06:50:19.665Z,77.30
2018-03-18T06:52:52.942Z,77.50
2018-03-18T06:55:25.425Z,76.90
2018-03-18T06:57:59.395Z,76.50
2018-03-18T07:00:32.107Z,76.70
2018-03-18T07:03:05.435Z,76.80
2018-03-18T07:05:37.882Z,76.70
2018-03-18T07:08:10.420Z,77.50
2018-03-18T07:10:43.042Z,77.70
2018-03-18T07:13:15.609Z,77.90
2018-03-18T07:15:48.050Z,77.80
2018-03-18T07:18:21.296Z,75.80
2018-03-18T07:20:54.066Z,75.80
2018-03-18T07:23:27.406Z,76.00
2018-03-18T07:26:00.118Z,76.30
2018-03-18T07:28:32.602Z,76.30
2018-03-18T07:31:04.956Z,75.20
2018-03-18T07:33:37.923Z,75.80
2018-03-18T07:36:10.908Z,75.30
2018-03-18T07:38:43.485Z,75.20
2018-03-18T07:41:17.577Z,75.90
2018-03-18T07:43:50.188Z,75.00
2018-03-18T07:46:22.734Z,74.80
2018-03-18T07:48:56.102Z,75.10
2018-03-18T07:51:28.572Z,75.10
2018-03-18T07:54:02.019Z,74.20
2018-03-18T07:56:35.403Z,74.00
2018-03-18T07:59:07.857Z,74.00
2018-03-18T08:01:40.331Z,74.60
2018-03-18T08:04:13.514Z,75.50
2018-03-18T08:06:46.229Z,75.70
2018-03-18T08:09:20.341Z,75.50
2018-03-18T08:11:53.038Z,75.60
2018-03-18T08:14:25.612Z,74.90
2018-03-18T08:16:58.957Z,75.40
2018-03-18T08:19:31.403Z,74.50
2018-03-18T08:22:04.865Z,73.40
2018-03-18T08:24:37.251Z,74.00
2018-03-18T08:27:09.717Z,73.60
2018-03-18T08:29:43.906Z,73.90
2018-03-18T08:32:17.340Z,73.90
2018-03-18T08:34:50.075Z,73.90
2018-03-18T08:37:23.507Z,74.70
2018-03-18T08:39:55.903Z,71.40
2018-03-18T08:42:28.806Z,70.90
2018-03-18T08:45:01.435Z,71.20
2018-03-18T08:47:34.319Z,71.20
2018-03-18T08:50:07.553Z,71.40
2018-03-18T08:52:41.024Z,72.20
2018-03-18T08:55:14.926Z,71.70
2018-03-18T08:57:47.704Z,71.60
2018-03-18T09:00:20.966Z,71.40
2018-03-18T09:02:53.373Z,72.70
2018-03-18T09:05:25.884Z,72.80
2018-03-18T09:07:59.202Z,72.40
2018-03-18T09:10:32.497Z,71.90
2018-03-18T09:13:05.793Z,72.00
2018-03-18T09:15:39.098Z,71.20
2018-03-18T09:18:11.838Z,71.10
2018-03-18T09:20:44.461Z,72.40
2018-03-18T09:23:18.431Z,72.40
2018-03-18T09:25:51.311Z,72.40
2018-03-18T09:28:25.358Z,70.80
2018-03-18T09:30:58.101Z,70.60
2018-03-18T09:33:31.450Z,69.40
2018-03-18T09:36:04.787Z,69.20
2018-03-18T09:38:37.305Z,69.30
2018-03-18T09:41:11.474Z,70.00
2018-03-18T09:43:44.235Z,69.90
2018-03-18T09:46:16.665Z,70.00
2018-03-18T09:48:49.998Z,69.70
2018-03-18T09:51:22.441Z,69.60
2018-03-18T09:53:54.954Z,69.10
2018-03-18T09:56:27.905Z,69.00
2018-03-18T09:59:00.464Z,69.10
2018-03-18T10:01:33.220Z,69.20
2018-03-18T10:04:06.421Z,69.20
2018-03-18T10:06:38.898Z,68.90
2018-03-18T10:09:11.452Z,69.60
2018-03-18T10:11:44.971Z,68.60
2018-03-18T10:14:17.362Z,67.60
2018-03-18T10:16:49.903Z,67.20
2018-03-18T10:19:22.502Z,65.50
2018-03-18T10:21:54.991Z,65.40
2018-03-18T10:24:27.436Z,66.10
2018-03-18T10:27:00.761Z,65.90
2018-03-18T10:29:33.544Z,65.80
2018-03-18T10:32:06.887Z,66.30
2018-03-18T10:34:40.053Z,66.40
2018-03-18T10:37:12.778Z,66.30
2018-03-18T10:39:46.033Z,65.80
2018-03-18T10:42:18.437Z,65.90
2018-03-18T10:44:50.999Z,67.20
2018-03-18T10:47:24.165Z,66.70
2018-03-18T10:49:56.808Z,66.70
2018-03-18T10:52:29.259Z,67.20
2018-03-18T10:55:01.670Z,68.00
2018-03-18T10:57:35.070Z,68.00
2018-03-18T11:00:09.205Z,66.00
2018-03-18T11:02:42.745Z,66.30
2018-03-18T11:05:15.446Z,66.20
2018-03-18T11:07:48.822Z,65.70
2018-03-18T11:10:22.222Z,66.00
2018-03-18T11:12:54.595Z,65.20
2018-03-18T11:15:28.899Z,65.00
2018-03-18T11:18:04.171Z,65.10
2018-03-18T11:20:37.959Z,66.20
2018-03-18T11:23:10.663Z,66.20
2018-03-18T11:25:44.964Z,65.80
2018-03-18T11:28:17.573Z,65.90
2018-03-18T11:30:50.969Z,65.60
2018-03-18T11:33:24.423Z,64.80
2018-03-18T11:35:57.803Z,65.10
2018-03-18T11:38:31.069Z,65.60
2018-03-18T11:41:03.757Z,65.60
2018-03-18T11:43:36.251Z,64.90
2018-03-18T11:46:08.898Z,64.90
2018-03-18T11:48:41.315Z,64.70
2018-03-18T11:51:13.948Z,64.30
2018-03-18T11:53:47.344Z,63.70
2018-03-18T11:56:19.837Z,64.20
2018-03-18T11:58:52.253Z,64.30
2018-03-18T12:01:25.429Z,65.60
2018-03-18T12:03:58.256Z,65.50
2018-03-18T12:06:30.788Z,65.30
2018-03-18T12:09:03.289Z,65.20
2018-03-18T12:11:36.504Z,64.80
2018-03-18T12:14:09.962Z,63.90
2018-03-18T12:16:42.450Z,63.30
2018-03-18T12:19:14.980Z,64.40
2018-03-18T12:21:47.592Z,64.80
2018-03-18T12:24:20.961Z,65.30
2018-03-18T12:26:53.424Z,63.80
2018-03-18T12:29:26.543Z,62.90
2018-03-18T12:32:00.068Z,62.90
2018-03-18T12:34:33.647Z,64.60
2018-03-18T12:37:07.126Z,64.30
2018-03-18T12:40:00.775Z,65.10
2018-03-18T12:42:52.228Z,65.00
2018-03-18T12:45:25.322Z,65.30
2018-03-18T12:47:58.623Z,64.30
2018-03-18T12:50:32.043Z,63.90
2018-03-18T12:53:08.890Z,64.70
2018-03-18T12:55:41.965Z,65.00
2018-03-18T12:58:15.181Z,66.20
2018-03-18T13:00:48.797Z,65.80
2018-03-18T13:03:22.297Z,65.80
2018-03-18T13:05:55.038Z,65.80
2018-03-18T13:08:27.461Z,65.20
2018-03-18T13:11:00.802Z,66.10
2018-03-18T13:13:33.745Z,64.80
2018-03-18T13:16:07.445Z,65.80
2018-03-18T13:18:42.852Z,65.60
2018-03-18T13:21:15.688Z,65.10
2018-03-18T13:23:49.156Z,64.60
2018-03-18T13:26:22.720Z,65.60
2018-03-18T13:28:55.580Z,65.00
2018-03-18T13:31:29.643Z,65.70
2018-03-18T13:34:02.418Z,65.60
2018-03-18T13:36:35.907Z,66.80
2018-03-18T13:39:08.396Z,64.90
2018-03-18T13:41:41.657Z,65.00
2018-03-18T13:44:14.227Z,64.90
2018-03-18T13:46:46.717Z,65.50
2018-03-18T13:49:20.874Z,65.30
2018-03-18T13:51:53.745Z,65.10
2018-03-18T13:54:27.109Z,65.60
2018-03-18T13:56:59.971Z,65.50
2018-03-18T13:59:33.136Z,65.70
2018-03-18T14:02:06.539Z,66.00
2018-03-18T14:04:39.877Z,66.00
2018-03-18T14:07:13.543Z,65.70
2018-03-18T14:09:46.431Z,65.60
2018-03-18T14:12:19.708Z,65.80
2018-03-18T14:14:52.263Z,65.40
2018-03-18T14:17:24.730Z,65.60
2018-03-18T14:19:58.103Z,66.30
2018-03-18T14:22:31.241Z,66.40
2018-03-18T14:25:04.882Z,66.10
2018-03-18T14:27:37.605Z,66.10
2018-03-18T14:30:10.226Z,66.10
2018-03-18T14:32:42.697Z,66.20
2018-03-18T14:35:15.894Z,66.20
2018-03-18T14:37:49.548Z,66.40
2018-03-18T14:40:22.401Z,66.50
2018-03-18T14:42:54.848Z,67.60
2018-03-18T14:45:27.372Z,66.40
2018-03-18T14:48:00.669Z,65.60
2018-03-18T14:50:33.961Z,65.40
2018-03-18T14:53:07.397Z,67.20
2018-03-18T14:55:40.245Z,66.70
2018-03-18T14:58:13.440Z,66.30
2018-03-18T15:00:46.253Z,66.30
2018-03-18T15:03:19.503Z,66.60
2018-03-18T15:05:53.554Z,66.30
2018-03-18T15:08:26.028Z,66.20
2018-03-18T15:10:58.500Z,66.60
2018-03-18T15:13:30.935Z,66.40
2018-03-18T15:16:04.360Z,67.10
2018-03-18T15:18:37.637Z,67.70
2018-03-18T15:21:10.259Z,67.00
2018-03-18T15:23:43.466Z,66.50
2018-03-18T15:26:16.137Z,66.50
2018-03-18T15:28:48.512Z,65.80
2018-03-18T15:31:22.709Z,66.30
2018-03-18T15:33:55.242Z,66.20
2018-03-18T15:36:28.435Z,67.50
2018-03-18T15:39:00.996Z,67.50
2018-03-18T15:41:33.432Z,66.30
2018-03-18T15:44:06.784Z,67.30
2018-03-18T15:46:40.038Z,66.60
2018-03-18T15:49:13.409Z,67.30
2018-03-18T15:51:45.869Z,66.30
2018-03-18T15:54:18.516Z,67.50
2018-03-18T15:56:51.771Z,67.30
2018-03-18T15:59:25.048Z,67.10
2018-03-18T16:01:58.451Z,66.80
2018-03-18T16:04:31.853Z,66.50
2018-03-18T16:07:04.401Z,66.40
2018-03-18T16:09:36.929Z,66.20
2018-03-18T16:12:11.145Z,67.10
2018-03-18T16:14:43.682Z,67.10
2018-03-18T16:17:17.288Z,67.00
2018-03-18T16:19:50.364Z,67.20
2018-03-18T16:22:23.634Z,67.60
2018-03-18T16:24:57.001Z,67.50
2018-03-18T16:27:29.630Z,67.10
2018-03-18T16:30:21.260Z,67.50
2018-03-18T16:32:54.283Z,67.10
2018-03-18T16:35:27.639Z,67.20
2018-03-18T16:38:01.087Z,67.00
2018-03-18T16:40:33.468Z,66.90
2018-03-18T16:43:06.689Z,67.60
2018-03-18T16:45:40.131Z,68.50
2018-03-18T16:48:12.802Z,68.50
2018-03-18T16:50:45.257Z,68.70
2018-03-18T16:53:18.882Z,67.80
2018-03-18T16:55:52.000Z,67.50
2018-03-18T16:58:24.348Z,68.10
2018-03-18T17:00:56.794Z,67.50
2018-03-18T17:03:29.440Z,67.50
2018-03-18T17:06:02.104Z,67.50
2018-03-18T17:08:34.512Z,67.60
2018-03-18T17:11:07.886Z,68.20
2018-03-18T17:13:41.236Z,67.50
2018-03-18T17:16:14.644Z,67.20
2018-03-18T17:18:47.412Z,67.70
2018-03-18T17:21:19.939Z,67.70
2018-03-18T17:23:52.489Z,68.50
2018-03-18T17:26:25.926Z,68.70
2018-03-18T17:28:59.072Z,68.00
2018-03-18T17:31:32.299Z,67.90
2018-03-18T17:34:07.705Z,68.00
2018-03-18T17:36:41.168Z,68.20
2018-03-18T17:39:14.662Z,67.40
2018-03-18T17:41:48.109Z,67.60
2018-03-18T17:44:39.269Z,67.40
2018-03-18T17:50:59.776Z,67.80
2018-03-18T17:53:51.352Z,67.90
2018-03-18T17:56:36.948Z,67.50
2018-03-18T17:59:09.547Z,67.70
2018-03-18T18:01:42.750Z,67.70
2018-03-18T18:04:15.112Z,68.50
2018-03-18T18:06:49.317Z,68.30
2018-03-18T18:09:22.661Z,68.60
2018-03-18T18:11:55.444Z,68.50
2018-03-18T18:14:27.861Z,68.40
2018-03-18T18:17:01.096Z,67.90
2018-03-18T18:19:33.744Z,67.80
2018-03-18T18:22:06.158Z,68.00
2018-03-18T18:24:38.623Z,67.70
2018-03-18T18:27:11.275Z,67.40
2018-03-18T18:29:43.949Z,66.80
2018-03-18T18:32:16.484Z,66.90
2018-03-18T18:34:48.921Z,66.50
2018-03-18T18:37:21.747Z,66.50
2018-03-18T18:39:54.269Z,68.10
2018-03-18T18:42:26.880Z,67.70
2018-03-18T18:44:59.335Z,66.80
2018-03-18T18:47:31.964Z,67.30
2018-03-18T18:50:05.350Z,67.20
2018-03-18T18:52:38.092Z,66.90
2018-03-18T18:55:10.666Z,66.90
2018-03-18T18:57:44.012Z,67.60
2018-03-18T19:00:16.546Z,67.50
2018-03-18T19:02:49.689Z,67.80
2018-03-18T19:05:23.392Z,67.40
2018-03-18T19:07:56.475Z,67.30
2018-03-18T19:10:29.758Z,67.70
2018-03-18T19:13:13.394Z,67.00
2018-03-18T19:15:46.559Z,67.30
2018-03-18T19:18:20.826Z,67.00
2018-03-18T19:20:54.542Z,67.00
2018-03-18T19:23:27.929Z,66.90
2018-03-18T19:26:01.374Z,66.60
2018-03-18T19:28:33.862Z,67.10
2018-03-18T19:31:07.352Z,66.80
2018-03-18T19:33:40.691Z,67.60
2018-03-18T19:36:13.327Z,67.90
2018-03-18T19:38:46.631Z,67.20
2018-03-18T19:41:19.569Z,67.20
2018-03-18T19:43:53.377Z,68.00
2018-03-18T19:46:27.065Z,66.80
2018-03-18T19:49:00.067Z,68.20
2018-03-18T19:51:32.471Z,67.10
2018-03-18T19:54:05.128Z,67.20
2018-03-18T19:56:38.481Z,67.20
2018-03-18T19:59:11.079Z,67.30
2018-03-18T20:01:43.600Z,67.70
2018-03-18T20:04:16.277Z,67.30
2018-03-18T20:06:49.687Z,67.30
2018-03-18T20:09:22.168Z,67.80
2018-03-18T20:11:54.901Z,68.40
2018-03-18T20:14:27.360Z,67.40
2018-03-18T20:17:00.591Z,68.00
2018-03-18T20:19:33.346Z,68.00
2018-03-18T20:22:06.054Z,67.80
2018-03-18T20:24:38.526Z,67.80
2018-03-18T20:27:12.036Z,68.10
2018-03-18T20:29:46.790Z,67.70
2018-03-18T20:32:20.745Z,67.80
2018-03-18T20:34:53.760Z,67.80
2018-03-18T20:37:27.043Z,67.50
2018-03-18T20:40:00.333Z,67.90
2018-03-18T20:42:33.726Z,67.80
2018-03-18T20:45:06.185Z,68.00
2018-03-18T20:47:40.305Z,68.00
2018-03-18T20:50:13.867Z,68.20
2018-03-18T20:52:47.401Z,67.80
2018-03-18T20:55:20.599Z,68.10
2018-03-18T20:57:54.142Z,67.90
2018-03-18T21:00:26.993Z,67.90
2018-03-18T21:03:00.348Z,68.00
2018-03-18T21:05:35.281Z,68.20
2018-03-18T21:08:08.708Z,68.70
2018-03-18T21:10:42.624Z,68.40
2018-03-18T21:13:15.867Z,68.40
2018-03-18T21:15:49.229Z,68.60
2018-03-18T21:18:21.987Z,69.10
2018-03-18T21:20:55.336Z,69.20
2018-03-18T21:23:27.982Z,69.80
2018-03-18T21:26:01.328Z,69.00
2018-03-18T21:28:33.795Z,69.70
2018-03-18T21:31:06.618Z,68.80
2018-03-18T21:33:40.126Z,67.70
2018-03-18T21:36:12.852Z,67.70
2018-03-18T21:38:46.173Z,68.10
2018-03-18T21:41:18.666Z,68.50
2018-03-18T21:43:51.344Z,68.10
2018-03-18T21:46:24.430Z,67.80
2018-03-18T21:48:57.238Z,68.00
2018-03-18T21:51:30.202Z,68.70
2018-03-18T21:54:03.250Z,68.70
2018-03-18T21:56:36.175Z,69.10
2018-03-18T21:59:08.552Z,68.90
2018-03-18T22:01:41.229Z,68.50
2018-03-18T22:04:14.493Z,69.20
2018-03-18T22:06:47.506Z,69.10
2018-03-18T22:09:20.871Z,69.30
2018-03-18T22:11:53.869Z,68.60
2018-03-18T22:14:27.149Z,69.20
2018-03-18T22:16:59.792Z,69.20
2018-03-18T22:19:32.476Z,69.50
2018-03-18T22:22:05.904Z,68.80
2018-03-18T22:24:38.467Z,68.60
2018-03-18T22:27:11.733Z,69.40
2018-03-18T22:29:45.109Z,69.00
2018-03-18T22:32:18.587Z,68.20
2018-03-18T22:34:51.420Z,68.20
2018-03-18T22:37:24.010Z,69.30
2018-03-18T22:39:56.469Z,68.70
2018-03-18T22:42:29.211Z,69.00
2018-03-18T22:45:02.546Z,69.00
2018-03-18T22:47:35.384Z,69.10
2018-03-18T22:50:08.580Z,70.00
2018-03-18T22:52:41.422Z,69.90
2018-03-18T22:55:14.598Z,69.50
2018-03-18T22:57:47.028Z,70.10
2018-03-18T23:00:19.545Z,69.60
2018-03-18T23:02:52.189Z,69.50
2018-03-18T23:05:25.610Z,69.20
2018-03-18T23:07:58.070Z,70.00
2018-03-18T23:10:31.346Z,69.40
2018-03-18T23:13:04.867Z,70.30
2018-03-18T23:15:38.647Z,70.30
2018-03-18T23:18:11.331Z,70.10
2018-03-18T23:20:43.870Z,69.90
2018-03-18T23:23:17.172Z,69.70
2018-03-18T23:25:50.092Z,69.60
2018-03-18T23:28:23.434Z,69.40
2018-03-18T23:30:56.754Z,69.10
2018-03-18T23:33:29.592Z,69.10
2018-03-18T23:36:02.250Z,69.50
2018-03-18T23:38:34.847Z,69.60
2018-03-18T23:41:07.368Z,69.70
2018-03-18T23:43:40.703Z,69.50
2018-03-18T23:46:13.218Z,69.30
2018-03-18T23:48:45.733Z,69.80
2018-03-18T23:51:18.947Z,69.70
2018-03-18T23:53:52.393Z,70.30
2018-03-18T23:56:26.001Z,69.60
2018-03-18T23:58:58.780Z,69.70
